Time;durP1;ratioP1;P1;durP2;ratioP2;P2;SDS_P1;SDS_P2;PMS_P1;PMS_P2;Temp;Humidity;BMP_temperature;BMP_pressure;BME280_temperature;BME280_humidity;BME280_pressure;Samples;Min_cycle;Max_cycle;Signal;HPM_P1;HPM_P2
2022/10/04 00:01:57;;;;;;;27.90;13.07;;;12.20;99.90;;;;;;5048522;28;48244;-82
2022/10/04 00:04:43;;;;;;;23.38;11.52;;;12.20;99.90;;;;;;5035290;28;39982;-82
2022/10/04 00:07:36;;;;;;;21.25;11.00;;;12.20;99.90;;;;;;5056543;28;38673;-81
2022/10/04 00:10:24;;;;;;;23.35;11.43;;;12.30;99.90;;;;;;5029046;28;38197;-83
2022/10/04 00:13:04;;;;;;;21.73;11.27;;;12.40;99.90;;;;;;5022198;28;38891;-83
2022/10/04 00:15:33;;;;;;;20.75;11.95;;;12.40;99.90;;;;;;5030111;28;47379;-83
2022/10/04 00:18:22;;;;;;;27.90;12.43;;;12.40;99.90;;;;;;5041230;28;38770;-82
2022/10/04 00:20:59;;;;;;;15.88;9.98;;;12.40;99.90;;;;;;5047762;28;47571;-82
2022/10/04 00:23:42;;;;;;;19.27;12.13;;;12.40;99.90;;;;;;5037551;28;40181;-83
2022/10/04 00:26:26;;;;;;;28.08;12.63;;;12.40;99.90;;;;;;5023314;28;37716;-82
2022/10/04 00:28:56;;;;;;;22.75;11.07;;;12.40;99.90;;;;;;5054308;28;39321;-82
2022/10/04 00:31:28;;;;;;;23.70;11.52;;;12.30;99.90;;;;;;5056857;28;38062;-82
2022/10/04 00:34:21;;;;;;;21.23;11.60;;;12.30;99.90;;;;;;5056171;28;40451;-82
2022/10/04 00:37:15;;;;;;;21.88;13.70;;;12.30;99.90;;;;;;5002122;28;48801;-82
2022/10/04 00:40:10;;;;;;;16.00;9.63;;;12.30;99.90;;;;;;5038205;28;50231;-83
2022/10/04 00:42:52;;;;;;;14.07;9.20;;;12.20;99.90;;;;;;5024950;28;48456;-82
2022/10/04 00:45:26;;;;;;;;;;;12.20;99.90;;;;;;5034179;28;40288;-82
2022/10/04 00:47:59;;;;;;;;;;;12.10;99.90;;;;;;5019678;28;40048;-82
2022/10/04 00:50:53;;;;;;;21.77;10.85;;;12.10;99.90;;;;;;5033600;28;50472;-81
2022/10/04 00:53:56;;;;;;;19.05;11.07;;;12.00;99.90;;;;;;5031239;28;36969;-82
2022/10/04 00:56:44;;;;;;;19.15;11.63;;;12.00;99.90;;;;;;5046825;28;37978;-82
2022/10/04 00:59:28;;;;;;;17.23;11.65;;;12.00;99.90;;;;;;5037968;28;38276;-82
2022/10/04 01:02:06;;;;;;;19.15;12.10;;;12.00;99.90;;;;;;5492454;23;39073;-79
2022/10/04 01:04:42;;;;;;;23.50;11.52;;;11.90;99.90;;;;;;5002121;28;47204;-81
2022/10/04 01:07:11;;;;;;;18.58;12.07;;;11.90;99.90;;;;;;5012681;28;39770;-81
2022/10/04 01:09:45;;;;;;;21.90;13.73;;;11.90;99.90;;;;;;5007376;28;38165;-81
2022/10/04 01:12:37;;;;;;;27.05;13.60;;;11.80;99.90;;;;;;5008535;28;37114;-81
2022/10/04 01:15:09;;;;;;;28.03;16.20;;;11.80;99.90;;;;;;5007958;28;37418;-82
2022/10/04 01:17:35;;;;;;;31.25;19.48;;;11.70;99.90;;;;;;5004714;28;46867;-81
2022/10/04 01:20:02;;;;;;;29.67;16.40;;;11.70;99.90;;;;;;5018446;28;39721;-81
2022/10/04 01:22:32;;;;;;;28.63;15.75;;;11.80;99.90;;;;;;5015233;28;40028;-81
2022/10/04 01:24:58;;;;;;;29.90;19.20;;;11.80;99.90;;;;;;5028821;28;36277;-81
2022/10/04 01:27:40;;;;;;;28.45;19.20;;;11.80;99.90;;;;;;5010481;28;37625;-81
2022/10/04 01:30:13;;;;;;;27.88;17.20;;;11.80;99.90;;;;;;5013284;28;37308;-81
2022/10/04 01:32:39;;;;;;;26.45;17.13;;;11.80;99.90;;;;;;5010950;28;39111;-81
2022/10/04 01:35:08;;;;;;;26.75;18.05;;;11.70;99.90;;;;;;5017450;28;38202;-80
2022/10/04 01:37:35;;;;;;;23.70;16.80;;;11.60;99.90;;;;;;5015842;28;39018;-81
2022/10/04 01:40:02;;;;;;;28.25;17.35;;;11.60;99.90;;;;;;5011458;28;37109;-81
2022/10/04 01:42:54;;;;;;;25.75;16.42;;;11.50;99.90;;;;;;5016610;28;38020;-82
2022/10/04 01:45:54;;;;;;;36.83;22.42;;;11.60;99.90;;;;;;5021228;28;38153;-81
2022/10/04 01:48:24;;;;;;;39.50;22.50;;;11.60;99.90;;;;;;4998031;28;40063;-81
2022/10/04 01:51:16;;;;;;;26.75;19.17;;;11.70;99.90;;;;;;5010120;28;37283;-81
2022/10/04 01:54:01;;;;;;;43.13;25.65;;;11.70;99.90;;;;;;5008286;28;48984;-81
2022/10/04 01:56:40;;;;;;;30.35;19.40;;;11.70;99.90;;;;;;5014259;28;38579;-82
2022/10/04 01:59:14;;;;;;;35.17;21.50;;;11.70;99.90;;;;;;5003894;28;37911;-81
2022/10/04 02:01:43;;;;;;;35.75;21.15;;;11.70;99.90;;;;;;5009402;28;37281;-81
2022/10/04 02:04:26;;;;;;;27.17;17.95;;;11.80;99.90;;;;;;5012860;28;38131;-81
2022/10/04 02:06:55;;;;;;;30.15;19.70;;;11.80;99.90;;;;;;5012621;28;37330;-81
2022/10/04 02:09:28;;;;;;;33.67;22.67;;;11.80;99.90;;;;;;5011790;28;39626;-81
2022/10/04 02:11:57;;;;;;;47.88;29.38;;;11.80;99.90;;;;;;5008331;28;37438;-82
2022/10/04 02:14:26;;;;;;;28.77;22.33;;;11.80;99.90;;;;;;5013223;28;38035;-81
2022/10/04 02:16:53;;;;;;;33.50;23.13;;;11.80;99.90;;;;;;5018152;28;36240;-81
2022/10/04 02:19:24;;;;;;;39.05;23.58;;;11.80;99.90;;;;;;5006839;28;39072;-81
2022/10/04 02:21:51;;;;;;;37.22;18.63;;;11.70;99.90;;;;;;5020570;28;39004;-81
2022/10/04 02:24:18;;;;;;;38.88;22.73;;;11.70;99.90;;;;;;5007419;28;38513;-81
2022/10/04 02:26:52;;;;;;;29.65;20.48;;;11.70;99.90;;;;;;5026312;28;36499;-81
2022/10/04 02:29:21;;;;;;;26.65;18.63;;;11.70;99.90;;;;;;5003016;28;38886;-81
2022/10/04 02:34:35;;;;;;;39.55;23.95;;;11.60;99.90;;;;;;5009526;28;49000;-81
2022/10/04 02:37:06;;;;;;;28.85;20.63;;;11.60;99.90;;;;;;5011332;28;36608;-81
2022/10/04 02:39:44;;;;;;;33.67;21.17;;;11.60;99.90;;;;;;5009830;28;47076;-79
2022/10/04 02:42:17;;;;;;;30.83;19.92;;;11.60;99.90;;;;;;5010371;28;39261;-79
2022/10/04 02:44:51;;;;;;;41.83;24.38;;;11.60;99.90;;;;;;5015571;28;39195;-80
2022/10/04 02:47:24;;;;;;;30.50;19.30;;;11.50;99.90;;;;;;5024523;28;36845;-80
2022/10/04 02:50:05;;;;;;;27.33;19.08;;;11.50;99.90;;;;;;5008969;28;37630;-79
2022/10/04 02:52:47;;;;;;;37.42;20.63;;;11.50;99.90;;;;;;5020568;28;47197;-80
2022/10/04 02:55:21;;;;;;;31.63;19.80;;;11.50;99.90;;;;;;5032879;28;37052;-79
2022/10/04 02:57:51;;;;;;;31.85;20.73;;;11.50;99.90;;;;;;5019182;28;37883;-80
2022/10/04 03:00:26;;;;;;;39.25;21.83;;;11.50;99.90;;;;;;5027341;28;38905;-79
2022/10/04 03:03:20;;;;;;;44.13;23.70;;;11.40;99.90;;;;;;5018676;28;40078;-79
2022/10/04 03:05:55;;;;;;;34.95;20.35;;;11.50;99.90;;;;;;5013060;28;48431;-79
2022/10/04 03:08:22;;;;;;;36.70;23.33;;;11.50;99.90;;;;;;5029885;28;36655;-79
2022/10/04 03:10:49;;;;;;;41.65;25.42;;;11.50;99.90;;;;;;5016059;28;38225;-79
2022/10/04 03:13:19;;;;;;;32.05;19.50;;;11.50;99.90;;;;;;5009787;28;38740;-80
2022/10/04 03:15:48;;;;;;;31.30;20.25;;;11.50;99.90;;;;;;5016090;28;36787;-80
2022/10/04 03:18:15;;;;;;;39.30;23.10;;;11.40;99.90;;;;;;5012600;28;39485;-79
2022/10/04 03:20:41;;;;;;;24.58;17.20;;;11.50;99.90;;;;;;5017710;28;38981;-79
2022/10/04 03:23:09;;;;;;;37.22;23.45;;;11.40;99.90;;;;;;5011662;28;38562;-80
2022/10/04 03:26:10;;;;;;;26.13;19.00;;;11.40;99.90;;;;;;5018567;28;38087;-79
2022/10/04 03:28:37;;;;;;;29.02;20.17;;;11.40;99.90;;;;;;5010705;28;48616;-80
2022/10/04 03:31:04;;;;;;;32.15;20.70;;;11.30;99.90;;;;;;5026819;28;37616;-80
2022/10/04 03:33:31;;;;;;;32.35;20.15;;;11.20;99.90;;;;;;5014017;28;48486;-79
2022/10/04 03:35:59;;;;;;;31.77;19.60;;;11.20;99.90;;;;;;5025426;28;37934;-79
2022/10/04 03:38:27;;;;;;;28.23;19.17;;;11.20;99.90;;;;;;5011584;28;36715;-79
2022/10/04 03:40:56;;;;;;;38.28;20.00;;;11.30;99.90;;;;;;5018041;28;37473;-79
2022/10/04 03:43:32;;;;;;;33.67;18.52;;;11.20;99.90;;;;;;5016025;28;37597;-80
2022/10/04 03:46:00;;;;;;;35.85;22.13;;;11.20;99.90;;;;;;5015213;28;38570;-80
2022/10/04 03:48:38;;;;;;;30.35;20.58;;;11.30;99.90;;;;;;5017429;28;37202;-80
2022/10/04 03:51:06;;;;;;;30.45;19.45;;;11.30;99.90;;;;;;5013118;28;39188;-79
2022/10/04 03:53:41;;;;;;;30.23;19.50;;;11.20;99.90;;;;;;5020043;28;37359;-80
2022/10/04 03:56:29;;;;;;;35.00;19.58;;;11.30;99.90;;;;;;5015012;28;38451;-79
2022/10/04 03:58:56;;;;;;;28.20;17.55;;;11.30;99.90;;;;;;5016971;28;36601;-79
2022/10/04 04:01:31;;;;;;;30.30;18.95;;;11.30;99.90;;;;;;5017532;28;37792;-80
2022/10/04 04:04:20;;;;;;;32.92;18.73;;;11.30;99.90;;;;;;5022877;28;37172;-79
2022/10/04 04:07:06;;;;;;;31.33;19.05;;;11.30;99.90;;;;;;5012381;28;46889;-79
2022/10/04 04:10:21;;;;;;;32.63;19.55;;;11.30;99.90;;;;;;5014269;28;48892;-79
2022/10/04 04:13:03;;;;;;;32.75;19.55;;;11.30;99.90;;;;;;4989757;28;48579;-79
2022/10/04 04:15:32;;;;;;;31.98;17.60;;;11.30;99.90;;;;;;5017945;28;49180;-79
2022/10/04 04:18:05;;;;;;;25.63;17.73;;;11.30;99.90;;;;;;5020750;28;38528;-78
2022/10/04 04:20:36;;;;;;;27.17;17.33;;;11.30;99.90;;;;;;5009775;28;48529;-79
2022/10/04 04:23:27;;;;;;;24.30;15.38;;;11.30;99.90;;;;;;5017024;28;38878;-78
2022/10/04 04:25:58;;;;;;;30.50;16.55;;;11.20;99.90;;;;;;5008400;28;48988;-79
2022/10/04 04:28:40;;;;;;;22.95;16.52;;;11.20;99.90;;;;;;5013435;28;37173;-79
2022/10/04 04:31:20;;;;;;;25.70;13.93;;;11.10;99.90;;;;;;5019010;28;38089;-79
2022/10/04 04:34:05;;;;;;;28.95;16.23;;;11.10;99.90;;;;;;5018650;28;39916;-79
2022/10/04 04:36:39;;;;;;;32.00;17.47;;;11.10;99.90;;;;;;5013385;28;48813;-79
2022/10/04 04:41:57;;;;;;;23.27;15.38;;;10.90;99.90;;;;;;5018700;28;38295;-79
2022/10/04 04:44:24;;;;;;;29.73;19.80;;;10.90;99.90;;;;;;5022904;28;38736;-79
2022/10/04 04:46:51;;;;;;;32.42;17.30;;;10.90;99.90;;;;;;5014569;28;39110;-79
2022/10/04 04:49:17;;;;;;;31.00;17.88;;;10.90;99.90;;;;;;5015394;28;38134;-79
2022/10/04 04:51:50;;;;;;;22.60;15.40;;;11.00;99.90;;;;;;5013917;28;38049;-80
2022/10/04 04:54:22;;;;;;;32.60;18.15;;;10.90;99.90;;;;;;5012159;28;39771;-79
2022/10/04 04:56:51;;;;;;;33.83;19.92;;;11.00;99.90;;;;;;5012102;28;37211;-78
2022/10/04 04:59:21;;;;;;;30.77;17.10;;;11.00;99.90;;;;;;5009860;28;37123;-78
2022/10/04 05:01:49;;;;;;;33.90;17.67;;;11.00;99.90;;;;;;5007756;28;36639;-80
2022/10/04 05:04:25;;;;;;;29.83;17.23;;;11.00;99.90;;;;;;5012818;28;38725;-79
2022/10/04 05:07:05;;;;;;;26.05;16.40;;;11.00;99.90;;;;;;5002028;28;39147;-79
2022/10/04 05:09:33;;;;;;;27.67;18.95;;;10.90;99.90;;;;;;5009761;28;47108;-79
2022/10/04 05:12:08;;;;;;;40.05;17.40;;;10.90;99.90;;;;;;5007149;28;37513;-79
2022/10/04 05:14:40;;;;;;;24.20;16.38;;;10.90;99.90;;;;;;5004670;28;48839;-78
2022/10/04 05:17:07;;;;;;;27.90;19.52;;;10.90;99.90;;;;;;5002326;28;38736;-79
2022/10/04 05:19:36;;;;;;;30.13;17.30;;;10.90;99.90;;;;;;5006908;28;40607;-78
2022/10/04 05:22:10;;;;;;;31.30;18.20;;;10.80;99.90;;;;;;5004713;28;36405;-77
2022/10/04 05:24:44;;;;;;;33.07;19.60;;;10.80;99.90;;;;;;5003590;28;39306;-78
2022/10/04 05:27:34;;;;;;;27.77;17.25;;;10.70;99.90;;;;;;5004324;28;39335;-80
2022/10/04 05:30:28;;;;;;;35.85;18.05;;;10.70;99.90;;;;;;5010854;28;37676;-79
2022/10/04 05:33:08;;;;;;;30.07;18.80;;;10.70;99.90;;;;;;5000449;28;48823;-79
2022/10/04 05:36:01;;;;;;;38.35;22.00;;;10.70;99.90;;;;;;5007912;28;49197;-78
2022/10/04 05:38:44;;;;;;;43.67;21.73;;;10.70;99.90;;;;;;5015123;28;38051;-78
2022/10/04 05:41:13;;;;;;;;;;;10.70;99.90;;;;;;5012094;28;38536;-78
2022/10/04 05:43:49;;;;;;;38.77;21.67;;;10.70;99.90;;;;;;5013467;28;36525;-78
2022/10/04 05:46:22;;;;;;;32.05;19.77;;;10.70;99.90;;;;;;5013391;28;38718;-78
2022/10/04 05:48:58;;;;;;;33.03;20.07;;;10.60;99.90;;;;;;5010660;28;38737;-78
2022/10/04 05:51:28;;;;;;;40.78;22.75;;;10.70;99.90;;;;;;5010481;28;38012;-78
2022/10/04 05:53:59;;;;;;;38.70;22.50;;;10.70;99.90;;;;;;5017390;28;38577;-78
2022/10/04 05:56:29;;;;;;;32.70;20.30;;;10.70;99.90;;;;;;5015375;28;39064;-78
2022/10/04 05:58:58;;;;;;;29.50;20.15;;;10.70;99.90;;;;;;5018284;28;38069;-78
2022/10/04 06:02:01;;;;;;;31.80;19.80;;;10.70;99.90;;;;;;5025254;28;39236;-78
2022/10/04 06:05:09;;;;;;;32.60;21.60;;;10.70;99.90;;;;;;5035762;28;47348;-78
2022/10/04 06:07:44;;;;;;;39.17;22.53;;;10.60;99.90;;;;;;5002916;28;46964;-79
2022/10/04 06:10:36;;;;;;;37.73;21.63;;;10.60;99.90;;;;;;5018842;28;38577;-78
2022/10/04 06:13:32;;;;;;;33.90;21.15;;;10.60;99.90;;;;;;5012911;28;36711;-78
2022/10/04 06:16:01;;;;;;;33.87;19.63;;;10.60;99.90;;;;;;5017661;28;46921;-78
2022/10/04 06:19:06;;;;;;;33.80;20.13;;;10.60;99.90;;;;;;5015090;28;37874;-78
2022/10/04 06:21:59;;;;;;;40.10;23.27;;;10.60;99.90;;;;;;5020190;28;47132;-78
2022/10/04 06:24:34;;;;;;;30.33;18.03;;;10.60;99.90;;;;;;5010468;28;39443;-79
2022/10/04 06:27:16;;;;;;;37.07;21.30;;;10.60;99.90;;;;;;5018909;28;38139;-79
2022/10/04 06:29:48;;;;;;;26.97;19.00;;;10.60;99.90;;;;;;5016658;28;47511;-79
2022/10/04 06:32:33;;;;;;;43.67;23.48;;;10.60;99.90;;;;;;5020995;28;36741;-79
2022/10/04 06:35:33;;;;;;;43.53;24.50;;;10.60;99.90;;;;;;5012808;28;37860;-79
2022/10/04 06:38:09;;;;;;;31.80;20.58;;;10.60;99.90;;;;;;5010686;28;49059;-79
2022/10/04 06:40:44;;;;;;;32.57;20.17;;;10.60;99.90;;;;;;5010051;28;47603;-78
2022/10/04 06:43:39;;;;;;;41.80;21.40;;;10.60;99.90;;;;;;5024561;28;35729;-79
2022/10/04 06:46:36;;;;;;;35.55;22.83;;;10.50;99.90;;;;;;5031978;28;34980;-78
2022/10/04 06:49:35;;;;;;;36.50;21.53;;;10.50;99.90;;;;;;5012119;28;38107;-77
2022/10/04 06:52:07;;;;;;;41.60;22.98;;;10.60;99.90;;;;;;5022193;28;49154;-78
2022/10/04 06:54:49;;;;;;;36.83;20.75;;;10.60;99.90;;;;;;5015582;28;47323;-79
2022/10/04 06:57:34;;;;;;;39.00;23.60;;;10.60;99.90;;;;;;5016907;28;36597;-79
2022/10/04 07:00:27;;;;;;;36.65;22.02;;;10.60;99.90;;;;;;5034089;28;36134;-79
2022/10/04 07:03:26;;;;;;;36.17;23.00;;;10.70;99.90;;;;;;5023264;28;47814;-80
2022/10/04 07:06:00;;;;;;;39.40;22.42;;;10.70;99.90;;;;;;5024031;28;49248;-80
2022/10/04 07:08:46;;;;;;;31.98;21.55;;;10.80;99.90;;;;;;5025830;28;37726;-80
2022/10/04 07:11:12;;;;;;;38.50;25.27;;;10.80;99.90;;;;;;5021845;28;37956;-79
2022/10/04 07:13:43;;;;;;;34.20;23.70;;;10.90;99.90;;;;;;5023618;28;37790;-79
2022/10/04 07:16:26;;;;;;;41.35;23.70;;;10.90;99.90;;;;;;5010813;28;37631;-79
2022/10/04 07:19:17;;;;;;;42.17;23.50;;;11.00;99.90;;;;;;5020380;28;38073;-79
2022/10/04 07:21:57;;;;;;;41.22;23.27;;;11.10;99.90;;;;;;5025386;28;48814;-80
2022/10/04 07:24:31;;;;;;;43.10;24.88;;;11.10;99.90;;;;;;5029897;28;37742;-80
2022/10/04 07:27:00;;;;;;;34.70;22.50;;;11.20;99.90;;;;;;5034289;28;41298;-80
2022/10/04 07:29:40;;;;;;;44.55;23.50;;;11.30;99.90;;;;;;5033974;28;38657;-80
2022/10/04 07:32:21;;;;;;;32.33;20.90;;;11.40;99.90;;;;;;5029866;28;39037;-79
2022/10/04 07:34:58;;;;;;;34.00;21.55;;;11.50;99.90;;;;;;5033385;28;37939;-80
2022/10/04 07:37:28;;;;;;;42.28;22.65;;;11.60;99.90;;;;;;5029514;28;37485;-85
2022/10/04 07:40:03;;;;;;;32.47;20.83;;;11.60;99.90;;;;;;5016160;28;39286;-79
2022/10/04 07:42:43;;;;;;;34.85;20.65;;;11.70;99.90;;;;;;5010342;28;37454;-79
2022/10/04 07:45:19;;;;;;;32.03;21.88;;;11.80;99.90;;;;;;5012728;28;38678;-79
2022/10/04 07:47:46;;;;;;;40.15;21.05;;;11.90;99.90;;;;;;5011185;28;38504;-86
2022/10/04 07:50:27;;;;;;;30.17;20.75;;;11.90;99.90;;;;;;5037458;28;36746;-81
2022/10/04 07:52:58;;;;;;;31.73;19.23;;;12.00;99.90;;;;;;5008736;28;37096;-80
2022/10/04 07:55:56;;;;;;;31.58;20.98;;;12.00;99.90;;;;;;5013719;28;41117;-80
2022/10/04 07:58:44;;;;;;;33.15;20.90;;;12.10;99.90;;;;;;5011417;28;37379;-80
2022/10/04 08:01:27;;;;;;;31.25;21.15;;;12.10;99.90;;;;;;5012435;28;38340;-79
2022/10/04 08:04:08;;;;;;;28.42;19.73;;;12.20;99.90;;;;;;5010307;28;36280;-80
2022/10/04 08:06:43;;;;;;;29.30;20.52;;;12.30;99.90;;;;;;5009736;28;47996;-81
2022/10/04 08:09:31;;;;;;;29.67;19.98;;;12.40;99.90;;;;;;5004962;28;38552;-80
2022/10/04 08:12:22;;;;;;;30.33;19.17;;;12.50;99.90;;;;;;5006074;28;38098;-80
2022/10/04 08:14:53;;;;;;;35.90;18.48;;;12.50;99.90;;;;;;5004692;28;46799;-80
2022/10/04 08:17:40;;;;;;;27.13;18.92;;;12.60;99.90;;;;;;5006378;28;40329;-80
2022/10/04 08:20:19;;;;;;;28.88;18.83;;;12.60;99.90;;;;;;5004682;28;38129;-79
2022/10/04 08:23:17;;;;;;;30.45;18.98;;;12.60;99.90;;;;;;5011345;28;37313;-80
2022/10/04 08:25:51;;;;;;;29.67;18.38;;;12.70;99.90;;;;;;5005520;28;48325;-82
2022/10/04 08:32:05;;;;;;;24.88;17.10;;;12.90;99.90;;;;;;5002985;28;39488;-81
2022/10/04 08:34:31;;;;;;;24.38;17.10;;;13.10;99.90;;;;;;5018016;28;48680;-80
2022/10/04 08:37:23;;;;;;;28.25;17.10;;;13.30;99.90;;;;;;5005711;28;36405;-81
2022/10/04 08:40:02;;;;;;;26.38;17.85;;;13.30;99.90;;;;;;5012098;28;48640;-80
2022/10/04 08:43:09;;;;;;;23.77;15.35;;;13.40;99.90;;;;;;5008362;28;39968;-82
2022/10/04 08:46:13;;;;;;;24.38;17.33;;;13.40;99.90;;;;;;5019215;28;47090;-81
2022/10/04 08:49:18;;;;;;;23.70;16.35;;;13.50;99.90;;;;;;4988047;28;47166;-81
2022/10/04 08:55:22;;;;;;;23.13;15.48;;;13.50;99.90;;;;;;5034579;28;20054;-79
2022/10/04 08:58:10;;;;;;;24.30;16.10;;;13.60;99.90;;;;;;5004382;28;48981;-80
2022/10/04 09:00:55;;;;;;;27.52;16.02;;;13.80;99.90;;;;;;5025863;28;48578;-79
2022/10/04 09:03:25;;;;;;;25.00;15.73;;;13.80;99.90;;;;;;5023158;28;38010;-79
2022/10/04 09:06:00;;;;;;;21.10;14.82;;;13.90;99.90;;;;;;5031476;28;38463;-79
2022/10/04 09:08:35;;;;;;;23.15;15.45;;;14.00;99.90;;;;;;5030081;28;37416;-79
2022/10/04 09:11:40;;;;;;;24.15;14.85;;;14.20;99.90;;;;;;5000550;28;36787;-79
2022/10/04 09:14:34;;;;;;;20.60;14.13;;;14.10;99.90;;;;;;5014629;28;47296;-80
2022/10/04 09:17:28;;;;;;;20.13;13.88;;;14.10;99.90;;;;;;5036610;28;38581;-80
2022/10/04 09:19:57;;;;;;;20.23;14.95;;;14.20;99.90;;;;;;5003807;28;47332;-79
2022/10/04 09:22:42;;;;;;;21.95;14.02;;;14.30;99.90;;;;;;5012579;28;37772;-80
2022/10/04 09:25:23;;;;;;;20.42;13.38;;;14.40;99.90;;;;;;5012052;28;37482;-78
2022/10/04 09:28:15;;;;;;;22.55;13.43;;;14.60;99.90;;;;;;5016155;28;37468;-79
2022/10/04 09:31:03;;;;;;;25.73;15.05;;;14.60;99.90;;;;;;5005837;28;47158;-78
2022/10/04 09:33:51;;;;;;;19.90;12.95;;;14.60;99.90;;;;;;5015636;28;36616;-78
2022/10/04 09:36:30;;;;;;;20.10;12.95;;;14.70;99.90;;;;;;4999437;28;38116;-78
2022/10/04 09:39:17;;;;;;;19.23;13.25;;;14.80;99.90;;;;;;5002843;28;38162;-77
2022/10/04 09:41:51;;;;;;;18.30;14.45;;;14.60;99.90;;;;;;5019090;28;48540;-78
2022/10/04 09:44:57;;;;;;;22.65;13.93;;;14.50;99.90;;;;;;5022610;28;37610;-79
2022/10/04 09:47:39;;;;;;;18.95;12.88;;;14.60;99.90;;;;;;5023382;28;37572;-78
2022/10/04 09:50:12;;;;;;;17.02;12.82;;;14.70;99.90;;;;;;5017536;28;39952;-79
2022/10/04 09:52:57;;;;;;;16.52;11.77;;;15.00;99.90;;;;;;5025497;28;38123;-79
2022/10/04 09:55:59;;;;;;;18.92;12.43;;;15.00;99.90;;;;;;5035753;28;38338;-81
2022/10/04 09:58:42;;;;;;;15.05;11.13;;;15.20;99.90;;;;;;5036786;28;37793;-80
2022/10/04 10:01:31;;;;;;;22.00;12.25;;;15.40;99.90;;;;;;5033271;28;40994;-80
2022/10/04 10:04:08;;;;;;;18.20;11.68;;;15.50;99.90;;;;;;5024861;28;38658;-82
2022/10/04 10:07:02;;;;;;;15.13;10.55;;;15.70;99.90;;;;;;5022910;28;47177;-80
2022/10/04 10:16:31;;;;;;;16.65;11.50;;;15.70;99.90;;;;;;4954841;28;38095;-79
2022/10/04 10:19:19;;;;;;;17.08;10.55;;;15.90;99.90;;;;;;4983847;28;47260;-81
2022/10/04 10:22:27;;;;;;;13.82;10.95;;;16.20;99.90;;;;;;4993424;28;48062;-81
2022/10/04 10:25:21;;;;;;;17.42;10.25;;;16.20;99.90;;;;;;4986782;28;48856;-80
2022/10/04 10:28:44;;;;;;;17.38;10.65;;;16.40;99.90;;;;;;4977212;28;50247;-80
2022/10/04 10:31:22;;;;;;;17.00;10.70;;;16.30;99.90;;;;;;4977590;28;48548;-81
2022/10/04 10:34:32;;;;;;;15.15;9.50;;;16.20;99.90;;;;;;4978491;28;39621;-80
2022/10/04 10:37:39;;;;;;;17.40;9.88;;;16.30;99.90;;;;;;4953251;28;48507;-81
2022/10/04 10:40:47;;;;;;;14.00;9.73;;;16.30;99.90;;;;;;4975371;28;47737;-81
2022/10/04 10:43:28;;;;;;;20.45;8.73;;;16.50;99.90;;;;;;4954540;28;36348;-80
2022/10/04 10:46:18;;;;;;;17.42;9.52;;;16.80;99.90;;;;;;4983290;28;39502;-81
2022/10/04 10:48:51;;;;;;;15.30;9.95;;;16.70;99.90;;;;;;4967579;28;49848;-80
2022/10/04 10:52:02;;;;;;;18.85;9.02;;;16.80;99.90;;;;;;4970830;28;38723;-80
2022/10/04 10:55:02;;;;;;;14.52;9.63;;;16.90;99.90;;;;;;4988399;23;47329;-80
2022/10/04 10:57:49;;;;;;;12.88;8.52;;;16.80;99.90;;;;;;5002312;28;38007;-78
2022/10/04 11:00:24;;;;;;;14.27;9.60;;;16.90;99.90;;;;;;5007158;28;38370;-77
2022/10/04 11:03:11;;;;;;;15.52;9.07;;;16.80;99.90;;;;;;5018282;28;37119;-78
2022/10/04 11:06:12;;;;;;;14.20;9.38;;;16.80;99.90;;;;;;5001884;28;47278;-77
2022/10/04 11:08:56;;;;;;;15.55;9.35;;;17.00;99.90;;;;;;5012171;28;46783;-78
2022/10/04 11:12:03;;;;;;;14.02;9.50;;;16.80;99.90;;;;;;4992585;28;38141;-77
2022/10/04 11:15:06;;;;;;;17.33;10.18;;;16.60;99.90;;;;;;4984614;28;47067;-78
2022/10/04 11:17:48;;;;;;;16.83;8.80;;;16.60;99.90;;;;;;4978949;28;47054;-77
2022/10/04 11:20:29;;;;;;;15.27;9.45;;;16.70;99.90;;;;;;4988709;28;38613;-77
2022/10/04 11:23:27;;;;;;;10.57;8.25;;;16.80;99.90;;;;;;4981662;28;38265;-78
2022/10/04 11:26:24;;;;;;;11.23;7.93;;;17.00;99.90;;;;;;4972645;28;47078;-78
2022/10/04 11:29:20;;;;;;;14.98;9.43;;;17.20;99.90;;;;;;5011624;28;48592;-78
2022/10/04 11:32:23;;;;;;;13.88;9.20;;;16.80;99.90;;;;;;5020491;28;46948;-78
2022/10/04 11:35:05;;;;;;;14.75;9.07;;;16.80;99.90;;;;;;4988424;28;47593;-77
2022/10/04 11:37:49;;;;;;;15.55;8.27;;;17.00;99.90;;;;;;4992152;28;48552;-77
2022/10/04 11:40:42;;;;;;;17.10;9.40;;;16.90;99.90;;;;;;4983060;28;36527;-76
2022/10/04 11:43:39;;;;;;;13.30;8.88;;;17.00;99.90;;;;;;4966231;28;37564;-77
2022/10/04 11:46:36;;;;;;;14.27;8.95;;;17.20;99.90;;;;;;5021415;28;37761;-78
2022/10/04 11:52:19;;;;;;;12.65;8.57;;;17.80;99.90;;;;;;5365682;23;20039;-78
2022/10/04 11:55:16;;;;;;;11.30;8.38;;;17.90;99.90;;;;;;5027859;28;36718;-78
2022/10/04 11:57:56;;;;;;;13.35;8.23;;;17.80;99.90;;;;;;5051019;28;48452;-78
2022/10/04 12:00:25;;;;;;;12.20;7.35;;;18.00;99.90;;;;;;5056145;28;38327;-78
2022/10/04 12:03:06;;;;;;;17.05;8.00;;;18.00;99.90;;;;;;5055260;28;37344;-78
2022/10/04 12:09:16;;;;;;;14.38;8.55;;;18.00;99.90;;;;;;5205849;23;20053;-79
2022/10/04 12:15:07;;;;;;;14.80;9.45;;;18.00;99.90;;;;;;5004823;28;48987;-79
2022/10/04 12:17:55;;;;;;;10.98;9.10;;;18.00;99.90;;;;;;4999921;28;47040;-78
2022/10/04 12:20:58;;;;;;;13.63;9.50;;;17.80;99.90;;;;;;5008342;28;39603;-77
2022/10/04 12:23:36;;;;;;;13.05;9.00;;;17.70;99.90;;;;;;5007074;28;37852;-77
2022/10/04 12:26:17;;;;;;;12.30;8.57;;;17.90;99.90;;;;;;4998406;28;37275;-77
2022/10/04 12:29:03;;;;;;;13.00;8.02;;;18.20;99.90;;;;;;5002157;28;48703;-77
2022/10/04 12:32:04;;;;;;;14.32;8.18;;;18.00;99.90;;;;;;4999220;28;47991;-77
2022/10/04 12:35:24;;;;;;;14.82;9.48;;;18.20;99.90;;;;;;5003778;28;47284;-77
2022/10/04 12:38:30;;;;;;;11.40;8.15;;;17.90;99.90;;;;;;4985372;28;48200;-78
2022/10/04 12:41:10;;;;;;;13.43;7.93;;;17.90;99.90;;;;;;5007568;28;48705;-77
2022/10/04 12:43:55;;;;;;;17.80;9.40;;;18.00;99.90;;;;;;5025060;28;48196;-78
2022/10/04 12:46:24;;;;;;;11.60;8.30;;;17.80;99.90;;;;;;5015050;28;37140;-78
2022/10/04 12:49:08;;;;;;;11.00;8.05;;;17.80;99.90;;;;;;4999725;28;37467;-78
2022/10/04 12:51:53;;;;;;;11.35;7.68;;;18.10;99.90;;;;;;4988687;28;48776;-78
2022/10/04 12:54:34;;;;;;;12.25;6.45;;;18.20;99.90;;;;;;5002901;28;37494;-79
2022/10/04 12:57:28;;;;;;;12.10;8.20;;;18.00;99.90;;;;;;5025417;28;38351;-78
2022/10/04 13:00:16;;;;;;;13.60;7.82;;;17.80;99.90;;;;;;5001210;28;47168;-78
2022/10/04 13:03:01;;;;;;;14.43;8.05;;;17.90;99.90;;;;;;5000079;28;47078;-79
2022/10/04 13:06:14;;;;;;;13.73;8.20;;;17.80;99.90;;;;;;4998363;28;47278;-78
2022/10/04 13:08:44;;;;;;;12.07;7.07;;;18.00;99.90;;;;;;4988483;28;49148;-79
2022/10/04 13:11:27;;;;;;;10.57;7.07;;;18.20;99.90;;;;;;5001722;28;37462;-79
2022/10/04 13:13:58;;;;;;;;;;;18.60;99.90;;;;;;5007241;28;38856;-79
2022/10/04 13:16:52;;;;;;;14.77;8.10;;;18.60;99.90;;;;;;5004600;28;39167;-79
2022/10/04 13:19:34;;;;;;;16.45;8.60;;;18.40;99.90;;;;;;5008400;28;38580;-78
2022/10/04 13:22:21;;;;;;;13.10;7.55;;;18.30;99.90;;;;;;5002035;28;38996;-79
2022/10/04 13:24:59;;;;;;;11.95;7.10;;;18.40;99.90;;;;;;4997445;28;47112;-78
2022/10/04 13:27:47;;;;;;;12.07;7.93;;;18.60;99.90;;;;;;5005071;28;38027;-78
2022/10/04 13:30:26;;;;;;;11.40;8.07;;;18.20;99.90;;;;;;5001907;28;39592;-79
2022/10/04 13:33:17;;;;;;;12.75;7.43;;;18.20;99.90;;;;;;4996264;28;38193;-78
2022/10/04 13:36:08;;;;;;;11.48;7.15;;;18.30;99.90;;;;;;4995360;28;48281;-79
2022/10/04 13:38:49;;;;;;;13.48;7.45;;;18.40;99.90;;;;;;4990395;28;50096;-78
2022/10/04 13:41:39;;;;;;;13.68;7.50;;;18.40;99.90;;;;;;5002928;28;38365;-78
2022/10/04 13:44:43;;;;;;;10.63;6.57;;;18.30;99.90;;;;;;4999789;28;37222;-79
2022/10/04 13:47:22;;;;;;;12.32;7.07;;;18.20;99.90;;;;;;4997972;28;39111;-78
2022/10/04 13:49:57;;;;;;;13.05;6.85;;;18.50;99.90;;;;;;4999792;28;37144;-79
2022/10/04 13:58:38;;;;;;;13.00;6.15;;;18.20;99.90;;;;;;4991587;28;39748;-79
2022/10/04 14:01:04;;;;;;;11.68;6.68;;;18.40;99.90;;;;;;5004690;28;38619;-79
2022/10/04 14:03:55;;;;;;;9.77;7.70;;;18.40;99.90;;;;;;5015304;28;38245;-79
2022/10/04 14:06:36;;;;;;;12.45;6.60;;;18.40;99.90;;;;;;5014779;28;37511;-79
2022/10/04 14:09:12;;;;;;;;;;;18.20;99.90;;;;;;5011945;28;20114;-79
2022/10/04 14:12:04;;;;;;;12.02;6.10;;;18.30;99.90;;;;;;5004341;28;38666;-78
2022/10/04 14:15:08;;;;;;;9.02;6.65;;;18.20;99.90;;;;;;5007421;28;49163;-79
2022/10/04 14:17:53;;;;;;;10.70;5.70;;;18.20;99.90;;;;;;5010761;28;49401;-79
2022/10/04 14:20:48;;;;;;;8.52;6.28;;;18.20;99.90;;;;;;5011684;28;39380;-78